Carlos Beguerie, Argentina
Current Conditions -  °F | °C
As of 12:00 PM on Sunday 21 Dec 2014 (Local Time) from SAEZ Reporting Station
Clear Clear  
Wind Chill: 68°   Ceiling: Unl
Heat Index: 68°   Visibility: 6mi
Dew Point: 48°   Wind: 12mph
Humidity: 49%   Direction: 170°S
Pressure: 29.8"   Gusts: NA
Location:  35.49°S, 59.1°W
Report Text: SAEZ 211500Z 17010KT 140V200 CAVOK 20/09 Q1009
Loading
Personal Weather Stations






























Interactive Weather Map New forecast layout! Learn more

10-Day Weather Forecast

Advertisements
Track Severe Weather on mobile